sensor_id;sensor_type;location;lat;lon;timestamp;pressure;altitude;pressure_sealevel;temperature;humidity
1616;BME280;801;47.982;7.810;2022-12-10T03:30:47;97428.22;;;2.64;100.00
1616;BME280;801;47.982;7.810;2022-12-10T03:33:15;97423.66;;;2.48;100.00
1616;BME280;801;47.982;7.810;2022-12-10T03:35:43;97421.44;;;2.16;100.00
1616;BME280;801;47.982;7.810;2022-12-10T03:38:10;97427.25;;;1.90;100.00
1616;BME280;801;47.982;7.810;2022-12-10T03:40:37;97419.06;;;1.91;100.00
1616;BME280;801;47.982;7.810;2022-12-10T03:43:03;97424.94;;;2.05;100.00
1616;BME280;801;47.982;7.810;2022-12-10T03:45:30;97436.59;;;1.80;100.00
1616;BME280;801;47.982;7.810;2022-12-10T03:47:58;97423.59;;;1.67;100.00
1616;BME280;801;47.982;7.810;2022-12-10T03:50:25;97417.84;;;1.70;100.00
1616;BME280;801;47.982;7.810;2022-12-10T03:52:51;97423.81;;;1.77;100.00
1616;BME280;801;47.982;7.810;2022-12-10T03:55:18;97421.28;;;1.35;100.00
1616;BME280;801;47.982;7.810;2022-12-10T03:57:44;97423.97;;;1.59;100.00
1616;BME280;801;47.982;7.810;2022-12-10T04:00:12;97424.28;;;1.62;100.00
1616;BME280;801;47.982;7.810;2022-12-10T04:02:38;97427.06;;;1.79;100.00
1616;BME280;801;47.982;7.810;2022-12-10T04:05:07;97423.38;;;1.33;100.00
1616;BME280;801;47.982;7.810;2022-12-10T04:07:34;97424.28;;;1.51;100.00
1616;BME280;801;47.982;7.810;2022-12-10T04:10:01;97421.28;;;1.82;100.00
1616;BME280;801;47.982;7.810;2022-12-10T04:12:27;97427.28;;;1.66;100.00
1616;BME280;801;47.982;7.810;2022-12-10T04:14:54;97434.91;;;1.74;100.00
1616;BME280;801;47.982;7.810;2022-12-10T04:17:38;97436.00;;;2.02;100.00
1616;BME280;801;47.982;7.810;2022-12-10T04:20:06;97441.09;;;1.44;100.00
1616;BME280;801;47.982;7.810;2022-12-10T04:22:54;97442.13;;;1.55;100.00
1616;BME280;801;47.982;7.810;2022-12-10T04:25:38;97442.13;;;1.91;100.00
1616;BME280;801;47.982;7.810;2022-12-10T04:28:22;97438.22;;;1.58;100.00
1616;BME280;801;47.982;7.810;2022-12-10T04:30:49;97433.16;;;1.68;100.00
1616;BME280;801;47.982;7.810;2022-12-10T04:33:16;97434.88;;;1.51;100.00
1616;BME280;801;47.982;7.810;2022-12-10T04:35:44;97434.84;;;1.98;100.00
1616;BME280;801;47.982;7.810;2022-12-10T04:38:10;97429.38;;;2.28;100.00
1616;BME280;801;47.982;7.810;2022-12-10T04:40:37;97437.84;;;1.90;100.00
1616;BME280;801;47.982;7.810;2022-12-10T04:43:03;97434.56;;;2.35;100.00
1616;BME280;801;47.982;7.810;2022-12-10T04:45:30;97434.06;;;2.38;100.00
1616;BME280;801;47.982;7.810;2022-12-10T04:47:56;97437.16;;;2.46;100.00
1616;BME280;801;47.982;7.810;2022-12-10T04:50:23;97431.22;;;2.56;100.00
1616;BME280;801;47.982;7.810;2022-12-10T04:52:51;97426.44;;;2.70;100.00
1616;BME280;801;47.982;7.810;2022-12-10T04:55:17;97431.63;;;2.48;100.00
1616;BME280;801;47.982;7.810;2022-12-10T04:57:44;97428.09;;;2.31;100.00
1616;BME280;801;47.982;7.810;2022-12-10T05:00:12;97425.66;;;1.89;100.00
1616;BME280;801;47.982;7.810;2022-12-10T05:02:38;97431.94;;;2.11;100.00
1616;BME280;801;47.982;7.810;2022-12-10T05:05:05;97428.09;;;1.43;100.00
1616;BME280;801;47.982;7.810;2022-12-10T05:07:32;97434.53;;;1.71;100.00
1616;BME280;801;47.982;7.810;2022-12-10T05:10:00;97435.78;;;1.92;100.00
1616;BME280;801;47.982;7.810;2022-12-10T05:12:26;97436.63;;;2.33;100.00
1616;BME280;801;47.982;7.810;2022-12-10T05:14:53;97442.59;;;2.40;100.00
1616;BME280;801;47.982;7.810;2022-12-10T05:17:19;97449.09;;;2.20;100.00
1616;BME280;801;47.982;7.810;2022-12-10T05:19:46;97447.19;;;1.80;100.00
1616;BME280;801;47.982;7.810;2022-12-10T05:22:12;97442.34;;;1.89;100.00
1616;BME280;801;47.982;7.810;2022-12-10T05:24:56;97445.56;;;2.03;100.00
1616;BME280;801;47.982;7.810;2022-12-10T05:27:24;97442.47;;;1.82;100.00
1616;BME280;801;47.982;7.810;2022-12-10T05:29:51;97453.06;;;1.82;100.00
1616;BME280;801;47.982;7.810;2022-12-10T05:32:17;97456.88;;;1.75;100.00
1616;BME280;801;47.982;7.810;2022-12-10T05:34:44;97457.91;;;1.62;100.00
1616;BME280;801;47.982;7.810;2022-12-10T05:37:10;97461.63;;;1.61;100.00
1616;BME280;801;47.982;7.810;2022-12-10T05:39:37;97456.41;;;1.78;100.00
1616;BME280;801;47.982;7.810;2022-12-10T05:42:03;97466.31;;;1.59;100.00
1616;BME280;801;47.982;7.810;2022-12-10T05:44:31;97469.63;;;1.42;100.00
1616;BME280;801;47.982;7.810;2022-12-10T05:46:58;97471.25;;;1.67;100.00
1616;BME280;801;47.982;7.810;2022-12-10T05:49:24;97462.84;;;1.35;100.00
1616;BME280;801;47.982;7.810;2022-12-10T05:51:54;97466.28;;;1.35;100.00
1616;BME280;801;47.982;7.810;2022-12-10T05:54:20;97469.19;;;1.45;100.00
1616;BME280;801;47.982;7.810;2022-12-10T05:56:47;97482.19;;;1.35;100.00
1616;BME280;801;47.982;7.810;2022-12-10T05:59:13;97475.75;;;1.43;100.00
1616;BME280;801;47.982;7.810;2022-12-10T06:01:41;97481.59;;;1.21;100.00
1616;BME280;801;47.982;7.810;2022-12-10T06:04:08;97489.22;;;1.65;100.00
1616;BME280;801;47.982;7.810;2022-12-10T06:06:37;97490.16;;;1.59;100.00
1616;BME280;801;47.982;7.810;2022-12-10T06:09:04;97491.19;;;1.70;100.00
1616;BME280;801;47.982;7.810;2022-12-10T06:11:31;97499.97;;;1.70;100.00
1616;BME280;801;47.982;7.810;2022-12-10T06:13:58;97499.50;;;1.97;100.00
1616;BME280;801;47.982;7.810;2022-12-10T06:16:27;97497.72;;;2.26;100.00
1616;BME280;801;47.982;7.810;2022-12-10T06:18:56;97506.72;;;2.37;100.00
1616;BME280;801;47.982;7.810;2022-12-10T06:21:23;97498.63;;;2.32;100.00
1616;BME280;801;47.982;7.810;2022-12-10T06:23:50;97507.34;;;2.56;100.00
1616;BME280;801;47.982;7.810;2022-12-10T06:26:19;97511.06;;;2.43;100.00
1616;BME280;801;47.982;7.810;2022-12-10T06:28:46;97512.59;;;2.15;100.00
1616;BME280;801;47.982;7.810;2022-12-10T06:31:14;97514.91;;;2.00;100.00
1616;BME280;801;47.982;7.810;2022-12-10T06:33:41;97516.66;;;1.82;100.00
1616;BME280;801;47.982;7.810;2022-12-10T06:36:11;97516.31;;;1.79;100.00
1616;BME280;801;47.982;7.810;2022-12-10T06:38:38;97518.81;;;1.62;100.00
1616;BME280;801;47.982;7.810;2022-12-10T06:41:06;97522.94;;;1.46;100.00
1616;BME280;801;47.982;7.810;2022-12-10T06:43:32;97533.22;;;1.90;100.00
1616;BME280;801;47.982;7.810;2022-12-10T06:46:04;97530.00;;;2.11;100.00
1616;BME280;801;47.982;7.810;2022-12-10T06:48:31;97536.34;;;1.98;100.00
1616;BME280;801;47.982;7.810;2022-12-10T06:50:58;97540.03;;;1.32;100.00
1616;BME280;801;47.982;7.810;2022-12-10T06:53:25;97540.22;;;1.60;100.00
1616;BME280;801;47.982;7.810;2022-12-10T06:55:52;97539.81;;;1.99;100.00
1616;BME280;801;47.982;7.810;2022-12-10T06:58:18;97546.34;;;2.32;100.00
1616;BME280;801;47.982;7.810;2022-12-10T07:00:45;97550.75;;;2.14;100.00
1616;BME280;801;47.982;7.810;2022-12-10T07:03:11;97542.69;;;2.33;100.00
1616;BME280;801;47.982;7.810;2022-12-10T07:05:38;97550.97;;;2.24;100.00
1616;BME280;801;47.982;7.810;2022-12-10T07:08:05;97554.63;;;2.47;100.00
1616;BME280;801;47.982;7.810;2022-12-10T07:10:33;97560.84;;;2.41;100.00
1616;BME280;801;47.982;7.810;2022-12-10T07:12:59;97553.19;;;2.04;100.00
1616;BME280;801;47.982;7.810;2022-12-10T07:15:26;97564.66;;;2.45;100.00
1616;BME280;801;47.982;7.810;2022-12-10T07:17:53;97563.28;;;2.19;100.00
1616;BME280;801;47.982;7.810;2022-12-10T07:20:20;97567.91;;;2.35;100.00
1616;BME280;801;47.982;7.810;2022-12-10T07:22:46;97567.66;;;2.48;100.00
1616;BME280;801;47.982;7.810;2022-12-10T07:25:13;97566.88;;;2.24;100.00
1616;BME280;801;47.982;7.810;2022-12-10T07:27:41;97576.22;;;2.03;100.00
1616;BME280;801;47.982;7.810;2022-12-10T07:30:08;97576.31;;;1.85;100.00
1616;BME280;801;47.982;7.810;2022-12-10T07:32:35;97577.72;;;2.11;100.00
1616;BME280;801;47.982;7.810;2022-12-10T07:35:02;97590.53;;;1.49;100.00
1616;BME280;801;47.982;7.810;2022-12-10T07:37:28;97585.56;;;2.18;100.00
1616;BME280;801;47.982;7.810;2022-12-10T07:39:55;97576.56;;;2.07;100.00
1616;BME280;801;47.982;7.810;2022-12-10T07:42:21;97579.19;;;2.07;100.00
1616;BME280;801;47.982;7.810;2022-12-10T07:44:49;97592.34;;;1.90;100.00
1616;BME280;801;47.982;7.810;2022-12-10T07:47:16;97602.19;;;1.71;100.00
1616;BME280;801;47.982;7.810;2022-12-10T07:49:43;97602.78;;;1.73;100.00
1616;BME280;801;47.982;7.810;2022-12-10T07:52:09;97601.19;;;1.96;100.00
1616;BME280;801;47.982;7.810;2022-12-10T07:54:36;97601.00;;;2.09;100.00
1616;BME280;801;47.982;7.810;2022-12-10T07:57:02;97602.94;;;2.25;100.00
1616;BME280;801;47.982;7.810;2022-12-10T07:59:29;97610.03;;;1.78;100.00
1616;BME280;801;47.982;7.810;2022-12-10T08:01:57;97615.28;;;2.20;100.00
1616;BME280;801;47.982;7.810;2022-12-10T08:04:24;97615.41;;;2.01;100.00
1616;BME280;801;47.982;7.810;2022-12-10T08:06:54;97614.75;;;1.76;100.00
1616;BME280;801;47.982;7.810;2022-12-10T08:09:20;97624.44;;;1.70;100.00
1616;BME280;801;47.982;7.810;2022-12-10T08:11:47;97625.50;;;1.81;100.00
1616;BME280;801;47.982;7.810;2022-12-10T08:14:13;97624.41;;;2.24;100.00
1616;BME280;801;47.982;7.810;2022-12-10T08:16:40;97632.78;;;1.85;100.00
1616;BME280;801;47.982;7.810;2022-12-10T08:19:08;97630.75;;;1.69;100.00
1616;BME280;801;47.982;7.810;2022-12-10T08:21:34;97636.28;;;2.21;100.00
1616;BME280;801;47.982;7.810;2022-12-10T08:24:01;97639.94;;;1.97;100.00
1616;BME280;801;47.982;7.810;2022-12-10T08:26:30;97635.56;;;2.14;100.00
1616;BME280;801;47.982;7.810;2022-12-10T08:29:00;97634.72;;;1.90;100.00
1616;BME280;801;47.982;7.810;2022-12-10T08:31:27;97634.94;;;1.89;100.00
1616;BME280;801;47.982;7.810;2022-12-10T08:33:54;97628.75;;;2.06;100.00
1616;BME280;801;47.982;7.810;2022-12-10T08:36:22;97631.06;;;2.26;100.00
1616;BME280;801;47.982;7.810;2022-12-10T08:38:48;97636.22;;;1.44;100.00
1616;BME280;801;47.982;7.810;2022-12-10T08:41:17;97634.63;;;1.24;100.00
1616;BME280;801;47.982;7.810;2022-12-10T08:43:43;97628.97;;;2.05;100.00
1616;BME280;801;47.982;7.810;2022-12-10T08:46:12;97632.81;;;2.33;100.00
1616;BME280;801;47.982;7.810;2022-12-10T08:48:38;97639.50;;;2.23;100.00
1616;BME280;801;47.982;7.810;2022-12-10T08:51:05;97642.00;;;2.18;100.00
1616;BME280;801;47.982;7.810;2022-12-10T08:53:34;97645.81;;;2.34;100.00
1616;BME280;801;47.982;7.810;2022-12-10T08:56:01;97652.28;;;2.26;100.00
1616;BME280;801;47.982;7.810;2022-12-10T08:58:27;97657.00;;;2.24;100.00
1616;BME280;801;47.982;7.810;2022-12-10T09:00:54;97659.66;;;2.36;100.00
1616;BME280;801;47.982;7.810;2022-12-10T09:03:20;97659.31;;;2.44;100.00
1616;BME280;801;47.982;7.810;2022-12-10T09:05:47;97666.56;;;2.14;100.00
1616;BME280;801;47.982;7.810;2022-12-10T09:08:14;97669.13;;;1.78;100.00
1616;BME280;801;47.982;7.810;2022-12-10T09:10:41;97679.69;;;1.97;100.00
1616;BME280;801;47.982;7.810;2022-12-10T09:13:08;97680.56;;;1.79;100.00
1616;BME280;801;47.982;7.810;2022-12-10T09:15:35;97687.91;;;1.77;100.00
1616;BME280;801;47.982;7.810;2022-12-10T09:18:02;97684.50;;;1.88;100.00
1616;BME280;801;47.982;7.810;2022-12-10T09:20:28;97685.88;;;1.91;100.00
1616;BME280;801;47.982;7.810;2022-12-10T09:22:55;97691.59;;;1.87;100.00
1616;BME280;801;47.982;7.810;2022-12-10T09:25:21;97698.56;;;2.00;100.00
1616;BME280;801;47.982;7.810;2022-12-10T09:27:49;97694.81;;;1.78;100.00
1616;BME280;801;47.982;7.810;2022-12-10T09:30:16;97699.91;;;1.79;100.00
1616;BME280;801;47.982;7.810;2022-12-10T09:32:43;97698.63;;;1.82;100.00
1616;BME280;801;47.982;7.810;2022-12-10T09:35:09;97703.72;;;1.83;100.00
1616;BME280;801;47.982;7.810;2022-12-10T09:37:36;97700.56;;;1.75;100.00
1616;BME280;801;47.982;7.810;2022-12-10T09:40:03;97696.19;;;1.80;100.00
1616;BME280;801;47.982;7.810;2022-12-10T09:42:36;97701.72;;;2.21;100.00
1616;BME280;801;47.982;7.810;2022-12-10T09:45:14;97697.84;;;1.63;100.00
1616;BME280;801;47.982;7.810;2022-12-10T09:47:51;97696.59;;;1.96;100.00
1616;BME280;801;47.982;7.810;2022-12-10T09:50:24;97696.34;;;1.85;100.00
1616;BME280;801;47.982;7.810;2022-12-10T09:52:53;97692.94;;;2.08;100.00
1616;BME280;801;47.982;7.810;2022-12-10T09:55:25;97693.44;;;2.17;100.00
1616;BME280;801;47.982;7.810;2022-12-10T09:57:52;97688.06;;;1.33;100.00
1616;BME280;801;47.982;7.810;2022-12-10T10:00:23;97690.03;;;1.38;100.00
1616;BME280;801;47.982;7.810;2022-12-10T10:02:55;97680.75;;;2.19;100.00
1616;BME280;801;47.982;7.810;2022-12-10T10:05:26;97687.56;;;2.27;100.00
1616;BME280;801;47.982;7.810;2022-12-10T10:07:54;97687.16;;;2.00;100.00
1616;BME280;801;47.982;7.810;2022-12-10T10:10:25;97699.13;;;1.91;100.00
1616;BME280;801;47.982;7.810;2022-12-10T10:12:53;97696.34;;;1.85;100.00
1616;BME280;801;47.982;7.810;2022-12-10T10:15:25;97693.25;;;2.00;100.00
1616;BME280;801;47.982;7.810;2022-12-10T10:17:57;97698.69;;;1.63;100.00
1616;BME280;801;47.982;7.810;2022-12-10T10:20:24;97700.50;;;1.63;100.00
1616;BME280;801;47.982;7.810;2022-12-10T10:22:52;97694.53;;;1.98;100.00
1616;BME280;801;47.982;7.810;2022-12-10T10:25:19;97698.25;;;2.08;100.00
1616;BME280;801;47.982;7.810;2022-12-10T10:27:46;97707.19;;;1.96;100.00
1616;BME280;801;47.982;7.810;2022-12-10T10:30:16;97710.53;;;1.91;100.00
1616;BME280;801;47.982;7.810;2022-12-10T10:32:49;97710.22;;;1.69;100.00
1616;BME280;801;47.982;7.810;2022-12-10T10:35:22;97709.13;;;1.58;100.00
1616;BME280;801;47.982;7.810;2022-12-10T10:37:49;97707.38;;;1.82;100.00
1616;BME280;801;47.982;7.810;2022-12-10T10:40:22;97703.53;;;1.66;100.00
1616;BME280;801;47.982;7.810;2022-12-10T10:42:52;97709.78;;;1.54;100.00
1616;BME280;801;47.982;7.810;2022-12-10T10:45:35;97712.25;;;1.37;100.00
1616;BME280;801;47.982;7.810;2022-12-10T10:48:12;97712.16;;;1.62;100.00
1616;BME280;801;47.982;7.810;2022-12-10T10:50:41;97718.69;;;1.59;100.00
1616;BME280;801;47.982;7.810;2022-12-10T10:53:30;97715.09;;;1.54;100.00
1616;BME280;801;47.982;7.810;2022-12-10T10:56:01;97713.44;;;1.71;100.00
1616;BME280;801;47.982;7.810;2022-12-10T10:58:31;97718.47;;;1.91;100.00
1616;BME280;801;47.982;7.810;2022-12-10T11:01:00;97718.75;;;1.71;100.00
1616;BME280;801;47.982;7.810;2022-12-10T11:03:30;97719.78;;;1.70;100.00
1616;BME280;801;47.982;7.810;2022-12-10T11:05:59;97721.22;;;1.84;100.00
1616;BME280;801;47.982;7.810;2022-12-10T11:08:29;97721.47;;;1.64;100.00
1616;BME280;801;47.982;7.810;2022-12-10T11:11:00;97722.78;;;1.43;100.00
1616;BME280;801;47.982;7.810;2022-12-10T11:13:30;97724.09;;;1.34;100.00
1616;BME280;801;47.982;7.810;2022-12-10T11:16:00;97723.78;;;1.42;100.00
1616;BME280;801;47.982;7.810;2022-12-10T11:18:34;97719.84;;;1.33;100.00
1616;BME280;801;47.982;7.810;2022-12-10T11:21:04;97728.50;;;1.59;100.00
1616;BME280;801;47.982;7.810;2022-12-10T11:23:37;97728.50;;;2.01;100.00
1616;BME280;801;47.982;7.810;2022-12-10T11:26:24;97734.41;;;2.03;100.00
1616;BME280;801;47.982;7.810;2022-12-10T11:29:05;97726.72;;;2.13;100.00
1616;BME280;801;47.982;7.810;2022-12-10T11:31:52;97733.78;;;2.19;100.00
1616;BME280;801;47.982;7.810;2022-12-10T11:34:30;97738.66;;;1.92;100.00
1616;BME280;801;47.982;7.810;2022-12-10T11:37:04;97738.34;;;1.70;100.00
1616;BME280;801;47.982;7.810;2022-12-10T11:39:50;97738.91;;;2.14;100.00
1616;BME280;801;47.982;7.810;2022-12-10T11:42:24;97729.16;;;1.84;100.00
1616;BME280;801;47.982;7.810;2022-12-10T11:44:59;97735.16;;;2.34;100.00
1616;BME280;801;47.982;7.810;2022-12-10T11:47:37;97732.66;;;1.66;100.00
1616;BME280;801;47.982;7.810;2022-12-10T11:50:23;97743.31;;;2.20;100.00
1616;BME280;801;47.982;7.810;2022-12-10T11:53:01;97739.09;;;2.43;100.00
1616;BME280;801;47.982;7.810;2022-12-10T11:55:36;97741.41;;;2.39;100.00
1616;BME280;801;47.982;7.810;2022-12-10T11:58:27;97748.00;;;2.48;100.00
1616;BME280;801;47.982;7.810;2022-12-10T12:01:03;97754.97;;;2.19;100.00
1616;BME280;801;47.982;7.810;2022-12-10T12:03:51;97754.47;;;1.99;100.00
1616;BME280;801;47.982;7.810;2022-12-10T12:06:36;97752.03;;;2.39;100.00
1616;BME280;801;47.982;7.810;2022-12-10T12:09:13;97751.13;;;2.57;100.00
1616;BME280;801;47.982;7.810;2022-12-10T12:11:55;97760.88;;;2.21;100.00
1616;BME280;801;47.982;7.810;2022-12-10T12:14:29;97769.25;;;2.18;100.00
1616;BME280;801;47.982;7.810;2022-12-10T12:17:02;97770.50;;;1.55;100.00
1616;BME280;801;47.982;7.810;2022-12-10T12:19:34;97768.22;;;1.59;100.00
1616;BME280;801;47.982;7.810;2022-12-10T12:22:23;97765.06;;;1.99;100.00
1616;BME280;801;47.982;7.810;2022-12-10T12:24:54;97759.38;;;1.95;100.00
1616;BME280;801;47.982;7.810;2022-12-10T12:27:26;97772.44;;;1.97;100.00
1616;BME280;801;47.982;7.810;2022-12-10T12:30:03;97769.38;;;1.63;100.00
1616;BME280;801;47.982;7.810;2022-12-10T12:32:40;97768.41;;;2.06;100.00
1616;BME280;801;47.982;7.810;2022-12-10T12:35:14;97770.06;;;1.89;100.00
1616;BME280;801;47.982;7.810;2022-12-10T12:37:49;97772.50;;;1.41;100.00
1616;BME280;801;47.982;7.810;2022-12-10T12:40:25;97778.69;;;1.84;100.00
1616;BME280;801;47.982;7.810;2022-12-10T12:42:58;97780.22;;;1.92;100.00
1616;BME280;801;47.982;7.810;2022-12-10T12:45:31;97779.41;;;1.91;100.00
1616;BME280;801;47.982;7.810;2022-12-10T12:48:02;97779.25;;;1.74;100.00
1616;BME280;801;47.982;7.810;2022-12-10T12:50:41;97788.66;;;1.70;100.00
1616;BME280;801;47.982;7.810;2022-12-10T12:53:12;97786.91;;;1.45;100.00
1616;BME280;801;47.982;7.810;2022-12-10T12:55:46;97795.28;;;1.61;100.00
1616;BME280;801;47.982;7.810;2022-12-10T12:58:21;97791.16;;;1.28;100.00
1616;BME280;801;47.982;7.810;2022-12-10T13:00:55;97789.75;;;1.81;100.00
1616;BME280;801;47.982;7.810;2022-12-10T13:03:33;97797.91;;;1.79;100.00
1616;BME280;801;47.982;7.810;2022-12-10T13:06:20;97804.34;;;2.02;100.00
1616;BME280;801;47.982;7.810;2022-12-10T13:08:52;97796.91;;;1.62;100.00
1616;BME280;801;47.982;7.810;2022-12-10T13:11:29;97815.50;;;1.92;100.00
1616;BME280;801;47.982;7.810;2022-12-10T13:14:30;97813.81;;;1.79;100.00
1616;BME280;801;47.982;7.810;2022-12-10T13:17:26;97815.56;;;1.85;100.00
1616;BME280;801;47.982;7.810;2022-12-10T13:19:53;97819.84;;;1.68;100.00
1616;BME280;801;47.982;7.810;2022-12-10T13:22:41;97813.25;;;1.59;100.00
1616;BME280;801;47.982;7.810;2022-12-10T13:25:14;97811.97;;;1.61;100.00
1616;BME280;801;47.982;7.810;2022-12-10T13:27:42;97817.19;;;1.31;100.00
1616;BME280;801;47.982;7.810;2022-12-10T13:30:32;97821.59;;;1.37;100.00
1616;BME280;801;47.982;7.810;2022-12-10T13:33:13;97820.00;;;1.55;100.00
1616;BME280;801;47.982;7.810;2022-12-10T13:35:56;97834.53;;;1.82;100.00
1616;BME280;801;47.982;7.810;2022-12-10T13:38:24;97832.31;;;1.98;100.00
1616;BME280;801;47.982;7.810;2022-12-10T13:41:03;97824.41;;;1.42;100.00
1616;BME280;801;47.982;7.810;2022-12-10T13:43:53;97837.44;;;1.81;100.00
1616;BME280;801;47.982;7.810;2022-12-10T13:46:56;97833.38;;;1.78;100.00
1616;BME280;801;47.982;7.810;2022-12-10T13:49:25;97839.84;;;1.82;100.00
1616;BME280;801;47.982;7.810;2022-12-10T13:51:55;97836.47;;;1.57;100.00
1616;BME280;801;47.982;7.810;2022-12-10T13:55:02;97848.41;;;1.22;100.00
1616;BME280;801;47.982;7.810;2022-12-10T13:57:48;97844.13;;;1.65;100.00
1616;BME280;801;47.982;7.810;2022-12-10T14:00:20;97854.34;;;1.61;100.00
1616;BME280;801;47.982;7.810;2022-12-10T14:03:09;97847.06;;;1.75;100.00
1616;BME280;801;47.982;7.810;2022-12-10T14:05:51;97853.84;;;1.53;100.00
1616;BME280;801;47.982;7.810;2022-12-10T14:08:25;97853.69;;;1.84;100.00
1616;BME280;801;47.982;7.810;2022-12-10T14:10:53;97870.59;;;1.65;100.00
1616;BME280;801;47.982;7.810;2022-12-10T14:13:32;97862.84;;;1.27;100.00
1616;BME280;801;47.982;7.810;2022-12-10T14:16:01;97879.94;;;1.49;100.00
1616;BME280;801;47.982;7.810;2022-12-10T14:18:30;97879.94;;;1.49;100.00
1616;BME280;801;47.982;7.810;2022-12-10T14:20:57;97884.16;;;1.32;100.00
1616;BME280;801;47.982;7.810;2022-12-10T14:23:26;97888.66;;;1.31;100.00
1616;BME280;801;47.982;7.810;2022-12-10T14:26:09;97888.63;;;1.56;100.00
1616;BME280;801;47.982;7.810;2022-12-10T14:28:44;97895.31;;;1.15;100.00
1616;BME280;801;47.982;7.810;2022-12-10T14:31:16;97893.91;;;1.56;100.00
1616;BME280;801;47.982;7.810;2022-12-10T14:33:44;97897.09;;;1.65;100.00
1616;BME280;801;47.982;7.810;2022-12-10T14:36:16;97899.44;;;1.36;100.00
1616;BME280;801;47.982;7.810;2022-12-10T14:38:46;97903.94;;;1.54;100.00
1616;BME280;801;47.982;7.810;2022-12-10T14:41:15;97907.50;;;1.41;100.00
1616;BME280;801;47.982;7.810;2022-12-10T14:43:44;97904.13;;;1.34;100.00
1616;BME280;801;47.982;7.810;2022-12-10T14:46:14;97904.53;;;1.75;100.00
1616;BME280;801;47.982;7.810;2022-12-10T14:48:42;97912.00;;;1.41;100.00
1616;BME280;801;47.982;7.810;2022-12-10T14:51:13;97904.44;;;1.63;100.00
1616;BME280;801;47.982;7.810;2022-12-10T14:53:40;97920.66;;;1.73;100.00
1616;BME280;801;47.982;7.810;2022-12-10T14:56:08;97922.78;;;1.83;100.00
1616;BME280;801;47.982;7.810;2022-12-10T14:58:40;97920.56;;;1.61;100.00
1616;BME280;801;47.982;7.810;2022-12-10T15:01:15;97920.53;;;1.43;100.00
1616;BME280;801;47.982;7.810;2022-12-10T15:03:45;97923.19;;;1.18;100.00
1616;BME280;801;47.982;7.810;2022-12-10T15:06:15;97924.75;;;1.26;100.00
1616;BME280;801;47.982;7.810;2022-12-10T15:08:44;97922.22;;;0.87;100.00
1616;BME280;801;47.982;7.810;2022-12-10T15:11:16;97921.31;;;0.93;100.00
1616;BME280;801;47.982;7.810;2022-12-10T15:13:45;97934.84;;;1.35;100.00
1616;BME280;801;47.982;7.810;2022-12-10T15:16:18;97934.09;;;1.28;100.00
1616;BME280;801;47.982;7.810;2022-12-10T15:18:45;97935.66;;;1.11;100.00
1616;BME280;801;47.982;7.810;2022-12-10T15:21:14;97940.75;;;1.37;100.00
1616;BME280;801;47.982;7.810;2022-12-10T15:23:43;97939.34;;;1.35;100.00
1616;BME280;801;47.982;7.810;2022-12-10T15:26:15;97934.09;;;1.28;100.00
1616;BME280;801;47.982;7.810;2022-12-10T15:28:44;97937.88;;;1.14;100.00
1616;BME280;801;47.982;7.810;2022-12-10T15:31:21;97945.88;;;1.32;100.00
1616;BME280;801;47.982;7.810;2022-12-10T15:33:49;97946.25;;;0.79;100.00
1616;BME280;801;47.982;7.810;2022-12-10T15:36:20;97943.84;;;1.02;100.00
1616;BME280;801;47.982;7.810;2022-12-10T15:38:49;97941.59;;;1.31;100.00
1616;BME280;801;47.982;7.810;2022-12-10T15:41:41;97950.53;;;1.12;100.00
1616;BME280;801;47.982;7.810;2022-12-10T15:44:19;97947.03;;;1.11;100.00
1616;BME280;801;47.982;7.810;2022-12-10T15:46:51;97952.47;;;1.23;100.00
1616;BME280;801;47.982;7.810;2022-12-10T15:49:18;97947.22;;;1.16;100.00
1616;BME280;801;47.982;7.810;2022-12-10T15:51:44;97955.19;;;0.78;100.00
1616;BME280;801;47.982;7.810;2022-12-10T15:54:20;97960.56;;;1.03;100.00
1616;BME280;801;47.982;7.810;2022-12-10T15:56:47;97965.81;;;1.10;100.00
1616;BME280;801;47.982;7.810;2022-12-10T15:59:14;97959.00;;;1.20;100.00
1616;BME280;801;47.982;7.810;2022-12-10T16:01:40;97961.81;;;0.62;100.00
1616;BME280;801;47.982;7.810;2022-12-10T16:04:08;97962.72;;;1.13;100.00
1616;BME280;801;47.982;7.810;2022-12-10T16:06:35;97965.91;;;1.21;100.00
1616;BME280;801;47.982;7.810;2022-12-10T16:09:02;97963.47;;;1.20;100.00
1616;BME280;801;47.982;7.810;2022-12-10T16:11:28;97965.97;;;1.15;100.00
1616;BME280;801;47.982;7.810;2022-12-10T16:13:55;97966.88;;;1.27;100.00
1616;BME280;801;47.982;7.810;2022-12-10T16:16:23;97973.31;;;1.13;100.00
1616;BME280;801;47.982;7.810;2022-12-10T16:18:50;97973.56;;;1.04;100.00
1616;BME280;801;47.982;7.810;2022-12-10T16:21:18;97983.59;;;1.28;100.00
1616;BME280;801;47.982;7.810;2022-12-10T16:23:45;97972.78;;;1.29;100.00
1616;BME280;801;47.982;7.810;2022-12-10T16:26:15;97974.31;;;1.43;100.00
1616;BME280;801;47.982;7.810;2022-12-10T16:28:43;97985.25;;;1.47;100.00
1616;BME280;801;47.982;7.810;2022-12-10T16:31:12;97984.84;;;1.50;100.00
1616;BME280;801;47.982;7.810;2022-12-10T16:33:40;97982.50;;;1.35;100.00
1616;BME280;801;47.982;7.810;2022-12-10T16:36:07;97986.94;;;1.16;100.00
1616;BME280;801;47.982;7.810;2022-12-10T16:38:35;97992.25;;;1.41;100.00
1616;BME280;801;47.982;7.810;2022-12-10T16:41:02;97983.34;;;1.29;100.00
1616;BME280;801;47.982;7.810;2022-12-10T16:43:29;97982.06;;;1.38;100.00
1616;BME280;801;47.982;7.810;2022-12-10T16:45:58;97992.09;;;1.36;100.00
1616;BME280;801;47.982;7.810;2022-12-10T16:48:24;97997.03;;;1.76;100.00
1616;BME280;801;47.982;7.810;2022-12-10T16:50:52;98006.66;;;1.71;100.00
1616;BME280;801;47.982;7.810;2022-12-10T16:53:22;98002.38;;;1.95;100.00
1616;BME280;801;47.982;7.810;2022-12-10T16:55:52;98002.63;;;2.30;100.00
1616;BME280;801;47.982;7.810;2022-12-10T16:58:18;98006.41;;;1.97;100.00
1616;BME280;801;47.982;7.810;2022-12-10T17:00:47;98004.75;;;2.21;100.00
1616;BME280;801;47.982;7.810;2022-12-10T17:03:16;98003.44;;;1.43;100.00
1616;BME280;801;47.982;7.810;2022-12-10T17:05:49;98005.16;;;2.00;100.00
1616;BME280;801;47.982;7.810;2022-12-10T17:08:16;98006.50;;;2.27;100.00
1616;BME280;801;47.982;7.810;2022-12-10T17:10:42;98013.94;;;2.19;100.00
1616;BME280;801;47.982;7.810;2022-12-10T17:13:29;98009.53;;;2.31;100.00
1616;BME280;801;47.982;7.810;2022-12-10T17:15:56;98011.81;;;2.46;100.00
1616;BME280;801;47.982;7.810;2022-12-10T17:18:22;98015.03;;;2.29;100.00
1616;BME280;801;47.982;7.810;2022-12-10T17:20:50;98005.19;;;2.55;100.00